sensor_id;sensor_type;location;lat;lon;timestamp;P1;durP1;ratioP1;P2;durP2;ratioP2
70071;SDS011;57434;42.794;23.302;2023-12-22T00:00:08;51.30;;;23.17;;
70071;SDS011;57434;42.794;23.302;2023-12-22T00:01:10;48.97;;;23.08;;
70071;SDS011;57434;42.794;23.302;2023-12-22T00:02:12;53.17;;;20.75;;
70071;SDS011;57434;42.794;23.302;2023-12-22T00:03:14;48.35;;;21.13;;
70071;SDS011;57434;42.794;23.302;2023-12-22T00:04:15;47.17;;;20.35;;
70071;SDS011;57434;42.794;23.302;2023-12-22T00:05:17;45.72;;;20.73;;
70071;SDS011;57434;42.794;23.302;2023-12-22T00:06:19;49.40;;;21.83;;
70071;SDS011;57434;42.794;23.302;2023-12-22T00:07:20;46.22;;;21.00;;
70071;SDS011;57434;42.794;23.302;2023-12-22T00:08:22;56.90;;;23.42;;
70071;SDS011;57434;42.794;23.302;2023-12-22T00:09:24;45.50;;;21.15;;
70071;SDS011;57434;42.794;23.302;2023-12-22T00:10:25;44.20;;;20.03;;
70071;SDS011;57434;42.794;23.302;2023-12-22T00:11:27;44.25;;;20.63;;
70071;SDS011;57434;42.794;23.302;2023-12-22T00:12:28;51.40;;;22.70;;
70071;SDS011;57434;42.794;23.302;2023-12-22T00:13:30;45.35;;;19.05;;
70071;SDS011;57434;42.794;23.302;2023-12-22T00:14:35;51.78;;;20.40;;
70071;SDS011;57434;42.794;23.302;2023-12-22T00:15:36;39.63;;;18.30;;
70071;SDS011;57434;42.794;23.302;2023-12-22T00:16:38;46.78;;;20.08;;
70071;SDS011;57434;42.794;23.302;2023-12-22T00:17:39;44.50;;;19.75;;
70071;SDS011;57434;42.794;23.302;2023-12-22T00:18:41;40.38;;;18.98;;
70071;SDS011;57434;42.794;23.302;2023-12-22T00:19:43;47.65;;;19.48;;
70071;SDS011;57434;42.794;23.302;2023-12-22T00:20:45;40.00;;;18.90;;
70071;SDS011;57434;42.794;23.302;2023-12-22T00:21:46;42.70;;;18.85;;
70071;SDS011;57434;42.794;23.302;2023-12-22T00:22:48;45.08;;;19.10;;
70071;SDS011;57434;42.794;23.302;2023-12-22T00:23:49;42.15;;;19.23;;
70071;SDS011;57434;42.794;23.302;2023-12-22T00:24:51;42.20;;;18.33;;
70071;SDS011;57434;42.794;23.302;2023-12-22T00:25:52;41.40;;;19.70;;
70071;SDS011;57434;42.794;23.302;2023-12-22T00:26:54;44.50;;;18.75;;
70071;SDS011;57434;42.794;23.302;2023-12-22T00:27:56;39.92;;;18.08;;
70071;SDS011;57434;42.794;23.302;2023-12-22T00:28:57;41.97;;;19.50;;
70071;SDS011;57434;42.794;23.302;2023-12-22T00:29:59;42.47;;;19.80;;
70071;SDS011;57434;42.794;23.302;2023-12-22T00:31:00;47.07;;;20.43;;
70071;SDS011;57434;42.794;23.302;2023-12-22T00:32:02;40.97;;;18.27;;
70071;SDS011;57434;42.794;23.302;2023-12-22T00:33:04;45.75;;;18.70;;
70071;SDS011;57434;42.794;23.302;2023-12-22T00:34:05;39.33;;;19.33;;
70071;SDS011;57434;42.794;23.302;2023-12-22T00:35:07;38.35;;;19.20;;
70071;SDS011;57434;42.794;23.302;2023-12-22T00:36:09;44.92;;;20.38;;
70071;SDS011;57434;42.794;23.302;2023-12-22T00:37:10;46.58;;;19.95;;
70071;SDS011;57434;42.794;23.302;2023-12-22T00:38:12;48.05;;;19.50;;
70071;SDS011;57434;42.794;23.302;2023-12-22T00:39:14;39.38;;;18.90;;
70071;SDS011;57434;42.794;23.302;2023-12-22T00:40:15;43.63;;;18.38;;
70071;SDS011;57434;42.794;23.302;2023-12-22T00:41:17;49.83;;;19.70;;
70071;SDS011;57434;42.794;23.302;2023-12-22T00:42:18;40.33;;;18.15;;
70071;SDS011;57434;42.794;23.302;2023-12-22T00:43:20;42.20;;;19.45;;
70071;SDS011;57434;42.794;23.302;2023-12-22T00:44:22;44.90;;;19.70;;
70071;SDS011;57434;42.794;23.302;2023-12-22T00:45:24;40.75;;;18.17;;
70071;SDS011;57434;42.794;23.302;2023-12-22T00:46:25;42.92;;;18.17;;
70071;SDS011;57434;42.794;23.302;2023-12-22T00:47:27;39.70;;;17.02;;
70071;SDS011;57434;42.794;23.302;2023-12-22T00:48:29;37.15;;;16.30;;
70071;SDS011;57434;42.794;23.302;2023-12-22T00:49:30;38.90;;;17.13;;
70071;SDS011;57434;42.794;23.302;2023-12-22T00:50:32;42.97;;;17.85;;
70071;SDS011;57434;42.794;23.302;2023-12-22T00:51:34;42.73;;;18.87;;
70071;SDS011;57434;42.794;23.302;2023-12-22T00:52:35;43.03;;;18.10;;
70071;SDS011;57434;42.794;23.302;2023-12-22T00:53:37;37.60;;;17.67;;
70071;SDS011;57434;42.794;23.302;2023-12-22T00:54:39;36.88;;;16.40;;
70071;SDS011;57434;42.794;23.302;2023-12-22T00:55:40;40.55;;;16.88;;
70071;SDS011;57434;42.794;23.302;2023-12-22T00:56:42;41.22;;;17.75;;
70071;SDS011;57434;42.794;23.302;2023-12-22T00:57:43;37.20;;;16.95;;
70071;SDS011;57434;42.794;23.302;2023-12-22T00:58:45;39.35;;;17.27;;
70071;SDS011;57434;42.794;23.302;2023-12-22T00:59:58;34.33;;;15.70;;
70071;SDS011;57434;42.794;23.302;2023-12-22T01:00:59;36.22;;;15.93;;
70071;SDS011;57434;42.794;23.302;2023-12-22T01:02:01;35.90;;;16.17;;
70071;SDS011;57434;42.794;23.302;2023-12-22T01:03:03;38.35;;;16.80;;
70071;SDS011;57434;42.794;23.302;2023-12-22T01:04:04;40.20;;;16.75;;
70071;SDS011;57434;42.794;23.302;2023-12-22T01:05:06;34.15;;;15.73;;
70071;SDS011;57434;42.794;23.302;2023-12-22T01:06:08;34.42;;;16.60;;
70071;SDS011;57434;42.794;23.302;2023-12-22T01:07:10;37.13;;;17.00;;
70071;SDS011;57434;42.794;23.302;2023-12-22T01:08:12;35.45;;;17.58;;
70071;SDS011;57434;42.794;23.302;2023-12-22T01:09:13;37.35;;;17.83;;
70071;SDS011;57434;42.794;23.302;2023-12-22T01:10:15;42.83;;;16.85;;
70071;SDS011;57434;42.794;23.302;2023-12-22T01:11:17;33.67;;;16.70;;
70071;SDS011;57434;42.794;23.302;2023-12-22T01:12:18;33.33;;;15.90;;
70071;SDS011;57434;42.794;23.302;2023-12-22T01:13:20;34.20;;;16.60;;
70071;SDS011;57434;42.794;23.302;2023-12-22T01:14:22;36.15;;;15.93;;
70071;SDS011;57434;42.794;23.302;2023-12-22T01:15:23;34.20;;;16.67;;
70071;SDS011;57434;42.794;23.302;2023-12-22T01:16:25;34.63;;;16.63;;
70071;SDS011;57434;42.794;23.302;2023-12-22T01:17:26;32.92;;;15.82;;
70071;SDS011;57434;42.794;23.302;2023-12-22T01:18:28;32.22;;;15.45;;
70071;SDS011;57434;42.794;23.302;2023-12-22T01:19:30;33.15;;;16.27;;
70071;SDS011;57434;42.794;23.302;2023-12-22T01:20:32;38.47;;;16.70;;
70071;SDS011;57434;42.794;23.302;2023-12-22T01:21:33;34.97;;;16.20;;
70071;SDS011;57434;42.794;23.302;2023-12-22T01:22:35;35.40;;;16.23;;
70071;SDS011;57434;42.794;23.302;2023-12-22T01:23:36;36.40;;;14.77;;
70071;SDS011;57434;42.794;23.302;2023-12-22T01:24:38;31.83;;;15.10;;
70071;SDS011;57434;42.794;23.302;2023-12-22T01:25:39;29.13;;;15.65;;
70071;SDS011;57434;42.794;23.302;2023-12-22T01:26:41;39.38;;;17.35;;
70071;SDS011;57434;42.794;23.302;2023-12-22T01:27:43;34.40;;;17.05;;
70071;SDS011;57434;42.794;23.302;2023-12-22T01:28:44;27.73;;;14.27;;
70071;SDS011;57434;42.794;23.302;2023-12-22T01:29:46;36.33;;;16.40;;
70071;SDS011;57434;42.794;23.302;2023-12-22T01:30:47;30.83;;;14.45;;
70071;SDS011;57434;42.794;23.302;2023-12-22T01:31:49;34.00;;;15.93;;
70071;SDS011;57434;42.794;23.302;2023-12-22T01:32:51;31.30;;;15.60;;
70071;SDS011;57434;42.794;23.302;2023-12-22T01:33:52;31.10;;;16.10;;
70071;SDS011;57434;42.794;23.302;2023-12-22T01:34:54;33.28;;;15.52;;
70071;SDS011;57434;42.794;23.302;2023-12-22T01:35:55;32.67;;;15.15;;
70071;SDS011;57434;42.794;23.302;2023-12-22T01:36:57;35.40;;;16.45;;
70071;SDS011;57434;42.794;23.302;2023-12-22T01:37:59;33.78;;;15.23;;
70071;SDS011;57434;42.794;23.302;2023-12-22T01:39:00;35.08;;;14.70;;
70071;SDS011;57434;42.794;23.302;2023-12-22T01:40:02;32.67;;;14.55;;
70071;SDS011;57434;42.794;23.302;2023-12-22T01:41:04;33.60;;;14.95;;
70071;SDS011;57434;42.794;23.302;2023-12-22T01:42:05;27.70;;;13.70;;
70071;SDS011;57434;42.794;23.302;2023-12-22T01:43:07;27.13;;;12.60;;
70071;SDS011;57434;42.794;23.302;2023-12-22T01:44:09;29.95;;;13.70;;
70071;SDS011;57434;42.794;23.302;2023-12-22T01:45:10;32.65;;;14.55;;
70071;SDS011;57434;42.794;23.302;2023-12-22T01:46:12;28.73;;;14.98;;
70071;SDS011;57434;42.794;23.302;2023-12-22T01:47:14;38.38;;;16.10;;
70071;SDS011;57434;42.794;23.302;2023-12-22T01:48:16;32.72;;;14.90;;
70071;SDS011;57434;42.794;23.302;2023-12-22T01:49:17;35.53;;;14.73;;
70071;SDS011;57434;42.794;23.302;2023-12-22T01:50:19;28.55;;;14.73;;
70071;SDS011;57434;42.794;23.302;2023-12-22T01:51:21;35.53;;;14.18;;
70071;SDS011;57434;42.794;23.302;2023-12-22T01:52:23;31.77;;;14.95;;
70071;SDS011;57434;42.794;23.302;2023-12-22T01:53:26;36.90;;;16.10;;
70071;SDS011;57434;42.794;23.302;2023-12-22T01:54:27;37.50;;;15.75;;
70071;SDS011;57434;42.794;23.302;2023-12-22T01:55:29;32.28;;;16.08;;
70071;SDS011;57434;42.794;23.302;2023-12-22T01:56:31;35.30;;;17.02;;
70071;SDS011;57434;42.794;23.302;2023-12-22T01:57:33;30.75;;;14.88;;
70071;SDS011;57434;42.794;23.302;2023-12-22T01:58:35;42.22;;;16.25;;
70071;SDS011;57434;42.794;23.302;2023-12-22T01:59:39;35.40;;;15.52;;
70071;SDS011;57434;42.794;23.302;2023-12-22T02:00:41;36.75;;;16.05;;
70071;SDS011;57434;42.794;23.302;2023-12-22T02:01:42;31.05;;;14.40;;
70071;SDS011;57434;42.794;23.302;2023-12-22T02:02:44;40.83;;;16.17;;
70071;SDS011;57434;42.794;23.302;2023-12-22T02:03:48;31.67;;;15.60;;
70071;SDS011;57434;42.794;23.302;2023-12-22T02:04:50;32.85;;;15.15;;
70071;SDS011;57434;42.794;23.302;2023-12-22T02:05:52;35.13;;;15.45;;
70071;SDS011;57434;42.794;23.302;2023-12-22T02:06:54;37.03;;;16.90;;
70071;SDS011;57434;42.794;23.302;2023-12-22T02:07:56;29.42;;;15.05;;
70071;SDS011;57434;42.794;23.302;2023-12-22T02:08:57;29.95;;;14.20;;
70071;SDS011;57434;42.794;23.302;2023-12-22T02:09:59;30.67;;;14.63;;
70071;SDS011;57434;42.794;23.302;2023-12-22T02:11:01;35.60;;;16.25;;
70071;SDS011;57434;42.794;23.302;2023-12-22T02:12:03;34.40;;;15.23;;
70071;SDS011;57434;42.794;23.302;2023-12-22T02:13:04;33.88;;;14.98;;
70071;SDS011;57434;42.794;23.302;2023-12-22T02:14:06;27.43;;;14.20;;
70071;SDS011;57434;42.794;23.302;2023-12-22T02:15:08;34.35;;;13.93;;
70071;SDS011;57434;42.794;23.302;2023-12-22T02:18:44;29.45;;;13.00;;
70071;SDS011;57434;42.794;23.302;2023-12-22T02:19:48;30.17;;;13.38;;
70071;SDS011;57434;42.794;23.302;2023-12-22T02:20:50;28.00;;;13.90;;
70071;SDS011;57434;42.794;23.302;2023-12-22T02:22:01;24.92;;;13.88;;
70071;SDS011;57434;42.794;23.302;2023-12-22T02:23:09;27.45;;;12.70;;
70071;SDS011;57434;42.794;23.302;2023-12-22T02:24:10;29.63;;;13.93;;
70071;SDS011;57434;42.794;23.302;2023-12-22T02:25:12;26.87;;;13.47;;
70071;SDS011;57434;42.794;23.302;2023-12-22T02:26:56;29.55;;;13.73;;
70071;SDS011;57434;42.794;23.302;2023-12-22T02:28:40;25.48;;;12.38;;
70071;SDS011;57434;42.794;23.302;2023-12-22T02:29:57;26.15;;;13.50;;
70071;SDS011;57434;42.794;23.302;2023-12-22T02:31:02;29.70;;;13.57;;
70071;SDS011;57434;42.794;23.302;2023-12-22T02:32:06;23.17;;;12.07;;
70071;SDS011;57434;42.794;23.302;2023-12-22T02:33:08;27.55;;;12.27;;
70071;SDS011;57434;42.794;23.302;2023-12-22T02:34:12;25.30;;;11.80;;
70071;SDS011;57434;42.794;23.302;2023-12-22T02:35:15;26.35;;;12.50;;
70071;SDS011;57434;42.794;23.302;2023-12-22T02:36:18;31.53;;;11.43;;
70071;SDS011;57434;42.794;23.302;2023-12-22T02:37:22;27.73;;;12.88;;
70071;SDS011;57434;42.794;23.302;2023-12-22T02:38:24;23.40;;;11.93;;
70071;SDS011;57434;42.794;23.302;2023-12-22T02:39:25;28.10;;;12.88;;
70071;SDS011;57434;42.794;23.302;2023-12-22T02:40:27;26.58;;;12.73;;
70071;SDS011;57434;42.794;23.302;2023-12-22T02:41:29;22.45;;;11.77;;
70071;SDS011;57434;42.794;23.302;2023-12-22T02:42:30;28.77;;;12.98;;
70071;SDS011;57434;42.794;23.302;2023-12-22T02:43:33;27.23;;;12.50;;
70071;SDS011;57434;42.794;23.302;2023-12-22T02:44:34;26.02;;;12.32;;
70071;SDS011;57434;42.794;23.302;2023-12-22T02:45:36;27.15;;;12.90;;
70071;SDS011;57434;42.794;23.302;2023-12-22T02:46:37;30.83;;;13.73;;
70071;SDS011;57434;42.794;23.302;2023-12-22T02:47:39;27.50;;;14.07;;
70071;SDS011;57434;42.794;23.302;2023-12-22T02:48:41;37.28;;;17.27;;
70071;SDS011;57434;42.794;23.302;2023-12-22T02:49:43;24.23;;;12.95;;
70071;SDS011;57434;42.794;23.302;2023-12-22T02:50:44;30.25;;;12.65;;
70071;SDS011;57434;42.794;23.302;2023-12-22T02:51:46;26.20;;;12.93;;
70071;SDS011;57434;42.794;23.302;2023-12-22T02:52:47;26.23;;;12.52;;
70071;SDS011;57434;42.794;23.302;2023-12-22T02:53:49;26.40;;;11.70;;
70071;SDS011;57434;42.794;23.302;2023-12-22T02:54:51;28.58;;;12.90;;
70071;SDS011;57434;42.794;23.302;2023-12-22T02:55:52;29.50;;;13.55;;
70071;SDS011;57434;42.794;23.302;2023-12-22T02:56:54;47.30;;;20.40;;
70071;SDS011;57434;42.794;23.302;2023-12-22T02:57:55;37.28;;;18.42;;
70071;SDS011;57434;42.794;23.302;2023-12-22T02:58:57;39.60;;;17.83;;
70071;SDS011;57434;42.794;23.302;2023-12-22T02:59:59;41.78;;;19.05;;
70071;SDS011;57434;42.794;23.302;2023-12-22T03:01:01;39.33;;;17.02;;
70071;SDS011;57434;42.794;23.302;2023-12-22T03:02:02;31.95;;;14.10;;
70071;SDS011;57434;42.794;23.302;2023-12-22T03:03:04;33.63;;;14.98;;
70071;SDS011;57434;42.794;23.302;2023-12-22T03:04:05;36.58;;;16.17;;
70071;SDS011;57434;42.794;23.302;2023-12-22T03:05:07;31.17;;;15.73;;
70071;SDS011;57434;42.794;23.302;2023-12-22T03:06:09;33.95;;;14.88;;
70071;SDS011;57434;42.794;23.302;2023-12-22T03:07:11;35.00;;;15.27;;
70071;SDS011;57434;42.794;23.302;2023-12-22T03:08:12;32.70;;;15.13;;
70071;SDS011;57434;42.794;23.302;2023-12-22T03:09:14;33.47;;;14.68;;
70071;SDS011;57434;42.794;23.302;2023-12-22T03:10:15;34.08;;;15.63;;
70071;SDS011;57434;42.794;23.302;2023-12-22T03:11:17;32.88;;;16.27;;
70071;SDS011;57434;42.794;23.302;2023-12-22T03:12:18;46.97;;;20.60;;
70071;SDS011;57434;42.794;23.302;2023-12-22T03:13:20;34.45;;;18.35;;
70071;SDS011;57434;42.794;23.302;2023-12-22T03:14:22;35.72;;;16.77;;
70071;SDS011;57434;42.794;23.302;2023-12-22T03:15:23;34.95;;;16.45;;
70071;SDS011;57434;42.794;23.302;2023-12-22T03:16:25;37.22;;;17.70;;
70071;SDS011;57434;42.794;23.302;2023-12-22T03:17:26;33.63;;;17.23;;
70071;SDS011;57434;42.794;23.302;2023-12-22T03:18:28;40.88;;;17.98;;
70071;SDS011;57434;42.794;23.302;2023-12-22T03:19:30;82.97;;;26.65;;
70071;SDS011;57434;42.794;23.302;2023-12-22T03:20:32;113.10;;;36.42;;
70071;SDS011;57434;42.794;23.302;2023-12-22T03:21:33;103.75;;;32.08;;
70071;SDS011;57434;42.794;23.302;2023-12-22T03:22:35;66.93;;;23.58;;
70071;SDS011;57434;42.794;23.302;2023-12-22T03:23:36;60.92;;;23.02;;
70071;SDS011;57434;42.794;23.302;2023-12-22T03:24:38;54.08;;;19.83;;
70071;SDS011;57434;42.794;23.302;2023-12-22T03:25:40;43.30;;;17.65;;
70071;SDS011;57434;42.794;23.302;2023-12-22T03:26:41;36.15;;;16.88;;
70071;SDS011;57434;42.794;23.302;2023-12-22T03:27:43;33.73;;;15.77;;
70071;SDS011;57434;42.794;23.302;2023-12-22T03:28:44;37.03;;;16.48;;
70071;SDS011;57434;42.794;23.302;2023-12-22T03:29:46;32.78;;;15.55;;
70071;SDS011;57434;42.794;23.302;2023-12-22T03:30:48;35.65;;;17.17;;
70071;SDS011;57434;42.794;23.302;2023-12-22T03:31:49;39.50;;;16.15;;
70071;SDS011;57434;42.794;23.302;2023-12-22T03:32:51;32.90;;;14.82;;
70071;SDS011;57434;42.794;23.302;2023-12-22T03:33:52;35.53;;;16.33;;
70071;SDS011;57434;42.794;23.302;2023-12-22T03:34:54;28.88;;;13.68;;
70071;SDS011;57434;42.794;23.302;2023-12-22T03:35:56;28.15;;;14.40;;
70071;SDS011;57434;42.794;23.302;2023-12-22T03:36:57;30.02;;;14.32;;
70071;SDS011;57434;42.794;23.302;2023-12-22T03:37:59;27.67;;;14.03;;
70071;SDS011;57434;42.794;23.302;2023-12-22T03:39:01;29.75;;;13.95;;
70071;SDS011;57434;42.794;23.302;2023-12-22T03:40:02;31.45;;;14.68;;
70071;SDS011;57434;42.794;23.302;2023-12-22T03:41:04;27.75;;;14.63;;
70071;SDS011;57434;42.794;23.302;2023-12-22T03:42:06;29.27;;;13.82;;
70071;SDS011;57434;42.794;23.302;2023-12-22T03:43:07;29.98;;;13.30;;
70071;SDS011;57434;42.794;23.302;2023-12-22T03:44:09;31.35;;;14.07;;
70071;SDS011;57434;42.794;23.302;2023-12-22T03:45:10;31.85;;;14.25;;
70071;SDS011;57434;42.794;23.302;2023-12-22T03:46:12;28.70;;;14.85;;
70071;SDS011;57434;42.794;23.302;2023-12-22T03:47:13;33.53;;;15.25;;
70071;SDS011;57434;42.794;23.302;2023-12-22T03:48:15;32.93;;;14.13;;
70071;SDS011;57434;42.794;23.302;2023-12-22T03:49:16;31.25;;;15.38;;
70071;SDS011;57434;42.794;23.302;2023-12-22T03:50:18;29.80;;;14.52;;
70071;SDS011;57434;42.794;23.302;2023-12-22T03:51:20;33.72;;;14.65;;
70071;SDS011;57434;42.794;23.302;2023-12-22T03:52:21;33.50;;;14.13;;
70071;SDS011;57434;42.794;23.302;2023-12-22T03:53:23;31.25;;;14.45;;
70071;SDS011;57434;42.794;23.302;2023-12-22T03:54:25;32.47;;;14.45;;
70071;SDS011;57434;42.794;23.302;2023-12-22T03:55:26;33.63;;;15.57;;
70071;SDS011;57434;42.794;23.302;2023-12-22T03:56:28;34.65;;;15.43;;
70071;SDS011;57434;42.794;23.302;2023-12-22T03:57:29;30.42;;;14.90;;
70071;SDS011;57434;42.794;23.302;2023-12-22T03:58:31;35.70;;;17.10;;
70071;SDS011;57434;42.794;23.302;2023-12-22T03:59:32;78.25;;;27.70;;
70071;SDS011;57434;42.794;23.302;2023-12-22T04:00:34;50.50;;;21.70;;
70071;SDS011;57434;42.794;23.302;2023-12-22T04:01:35;46.15;;;20.45;;
70071;SDS011;57434;42.794;23.302;2023-12-22T04:02:37;76.63;;;27.17;;
70071;SDS011;57434;42.794;23.302;2023-12-22T04:03:39;59.65;;;25.85;;
70071;SDS011;57434;42.794;23.302;2023-12-22T04:04:40;58.40;;;26.27;;
70071;SDS011;57434;42.794;23.302;2023-12-22T04:05:42;62.92;;;27.65;;
70071;SDS011;57434;42.794;23.302;2023-12-22T04:06:43;75.80;;;34.85;;
70071;SDS011;57434;42.794;23.302;2023-12-22T04:07:45;69.05;;;30.55;;
70071;SDS011;57434;42.794;23.302;2023-12-22T04:08:47;59.60;;;27.97;;
70071;SDS011;57434;42.794;23.302;2023-12-22T04:09:48;46.15;;;21.58;;
70071;SDS011;57434;42.794;23.302;2023-12-22T04:10:50;40.30;;;19.70;;
70071;SDS011;57434;42.794;23.302;2023-12-22T04:11:52;39.25;;;20.10;;
70071;SDS011;57434;42.794;23.302;2023-12-22T04:12:53;41.47;;;19.02;;
70071;SDS011;57434;42.794;23.302;2023-12-22T04:13:55;35.55;;;18.65;;
70071;SDS011;57434;42.794;23.302;2023-12-22T04:14:56;40.40;;;20.23;;
70071;SDS011;57434;42.794;23.302;2023-12-22T04:15:58;51.08;;;20.63;;
70071;SDS011;57434;42.794;23.302;2023-12-22T04:16:59;52.75;;;23.83;;
70071;SDS011;57434;42.794;23.302;2023-12-22T04:18:01;46.40;;;20.88;;
70071;SDS011;57434;42.794;23.302;2023-12-22T04:19:03;46.20;;;20.33;;
70071;SDS011;57434;42.794;23.302;2023-12-22T04:20:06;40.67;;;17.20;;
70071;SDS011;57434;42.794;23.302;2023-12-22T04:21:08;36.45;;;16.90;;
70071;SDS011;57434;42.794;23.302;2023-12-22T04:22:09;42.10;;;20.05;;
70071;SDS011;57434;42.794;23.302;2023-12-22T04:23:11;51.40;;;21.73;;
70071;SDS011;57434;42.794;23.302;2023-12-22T04:24:12;50.40;;;21.90;;
70071;SDS011;57434;42.794;23.302;2023-12-22T04:25:14;45.83;;;21.20;;
70071;SDS011;57434;42.794;23.302;2023-12-22T04:26:16;41.30;;;19.50;;
70071;SDS011;57434;42.794;23.302;2023-12-22T04:27:17;52.88;;;25.98;;
70071;SDS011;57434;42.794;23.302;2023-12-22T04:28:19;40.45;;;18.85;;
70071;SDS011;57434;42.794;23.302;2023-12-22T04:29:20;35.50;;;16.60;;
70071;SDS011;57434;42.794;23.302;2023-12-22T04:30:22;33.58;;;16.10;;
70071;SDS011;57434;42.794;23.302;2023-12-22T04:31:23;34.15;;;16.88;;
70071;SDS011;57434;42.794;23.302;2023-12-22T04:32:25;37.28;;;16.38;;
70071;SDS011;57434;42.794;23.302;2023-12-22T04:33:27;35.63;;;16.70;;
70071;SDS011;57434;42.794;23.302;2023-12-22T04:34:28;37.53;;;17.20;;
70071;SDS011;57434;42.794;23.302;2023-12-22T04:35:30;33.88;;;14.95;;
70071;SDS011;57434;42.794;23.302;2023-12-22T04:36:32;33.97;;;15.70;;
70071;SDS011;57434;42.794;23.302;2023-12-22T04:37:33;28.13;;;14.32;;
70071;SDS011;57434;42.794;23.302;2023-12-22T04:38:35;27.42;;;14.43;;
70071;SDS011;57434;42.794;23.302;2023-12-22T04:39:36;25.63;;;13.77;;
70071;SDS011;57434;42.794;23.302;2023-12-22T04:40:38;29.48;;;11.48;;
70071;SDS011;57434;42.794;23.302;2023-12-22T04:41:40;23.13;;;11.50;;
70071;SDS011;57434;42.794;23.302;2023-12-22T04:42:41;25.05;;;12.30;;
70071;SDS011;57434;42.794;23.302;2023-12-22T04:43:43;29.23;;;12.25;;
70071;SDS011;57434;42.794;23.302;2023-12-22T04:44:45;29.58;;;13.40;;
70071;SDS011;57434;42.794;23.302;2023-12-22T04:45:46;23.35;;;12.35;;
70071;SDS011;57434;42.794;23.302;2023-12-22T04:46:48;24.67;;;11.10;;
70071;SDS011;57434;42.794;23.302;2023-12-22T04:47:50;24.45;;;11.43;;
70071;SDS011;57434;42.794;23.302;2023-12-22T04:48:52;23.83;;;11.55;;
70071;SDS011;57434;42.794;23.302;2023-12-22T04:49:53;25.87;;;12.63;;
70071;SDS011;57434;42.794;23.302;2023-12-22T04:50:55;26.10;;;12.35;;
70071;SDS011;57434;42.794;23.302;2023-12-22T04:51:56;29.27;;;14.60;;
70071;SDS011;57434;42.794;23.302;2023-12-22T04:53:02;29.33;;;15.02;;
70071;SDS011;57434;42.794;23.302;2023-12-22T04:54:04;32.03;;;15.13;;
70071;SDS011;57434;42.794;23.302;2023-12-22T04:55:05;22.80;;;12.38;;
70071;SDS011;57434;42.794;23.302;2023-12-22T04:56:07;28.88;;;15.50;;
70071;SDS011;57434;42.794;23.302;2023-12-22T04:57:08;26.63;;;13.07;;
70071;SDS011;57434;42.794;23.302;2023-12-22T04:58:10;26.60;;;14.15;;
70071;SDS011;57434;42.794;23.302;2023-12-22T04:59:11;29.13;;;13.18;;
70071;SDS011;57434;42.794;23.302;2023-12-22T05:00:13;24.30;;;12.73;;
70071;SDS011;57434;42.794;23.302;2023-12-22T05:01:15;30.10;;;12.50;;
70071;SDS011;57434;42.794;23.302;2023-12-22T05:02:17;28.45;;;13.60;;
70071;SDS011;57434;42.794;23.302;2023-12-22T05:03:18;30.10;;;14.23;;
70071;SDS011;57434;42.794;23.302;2023-12-22T05:04:20;27.85;;;13.95;;
70071;SDS011;57434;42.794;23.302;2023-12-22T05:05:22;26.75;;;13.93;;
70071;SDS011;57434;42.794;23.302;2023-12-22T05:06:23;28.02;;;14.43;;
70071;SDS011;57434;42.794;23.302;2023-12-22T05:07:25;28.23;;;14.27;;
70071;SDS011;57434;42.794;23.302;2023-12-22T05:08:26;29.77;;;15.38;;
70071;SDS011;57434;42.794;23.302;2023-12-22T05:09:28;32.67;;;16.92;;
70071;SDS011;57434;42.794;23.302;2023-12-22T05:10:29;31.73;;;16.00;;
70071;SDS011;57434;42.794;23.302;2023-12-22T05:11:31;32.28;;;17.90;;
70071;SDS011;57434;42.794;23.302;2023-12-22T05:12:33;34.88;;;16.33;;
70071;SDS011;57434;42.794;23.302;2023-12-22T05:13:34;39.55;;;18.63;;
70071;SDS011;57434;42.794;23.302;2023-12-22T05:14:36;33.90;;;16.95;;
70071;SDS011;57434;42.794;23.302;2023-12-22T05:15:37;32.38;;;16.13;;
70071;SDS011;57434;42.794;23.302;2023-12-22T05:16:39;33.35;;;16.25;;
70071;SDS011;57434;42.794;23.302;2023-12-22T05:17:40;32.53;;;16.05;;
70071;SDS011;57434;42.794;23.302;2023-12-22T05:18:42;29.27;;;15.32;;
70071;SDS011;57434;42.794;23.302;2023-12-22T05:19:44;33.63;;;15.75;;
70071;SDS011;57434;42.794;23.302;2023-12-22T05:20:45;35.80;;;15.33;;
70071;SDS011;57434;42.794;23.302;2023-12-22T05:21:47;29.02;;;14.20;;
70071;SDS011;57434;42.794;23.302;2023-12-22T05:22:48;27.52;;;15.32;;
70071;SDS011;57434;42.794;23.302;2023-12-22T05:23:50;28.80;;;13.73;;
70071;SDS011;57434;42.794;23.302;2023-12-22T05:24:52;30.15;;;14.43;;
70071;SDS011;57434;42.794;23.302;2023-12-22T05:25:53;28.05;;;13.68;;
70071;SDS011;57434;42.794;23.302;2023-12-22T05:26:55;26.77;;;13.00;;
70071;SDS011;57434;42.794;23.302;2023-12-22T05:27:57;26.73;;;13.40;;
70071;SDS011;57434;42.794;23.302;2023-12-22T05:28:58;29.27;;;14.48;;
70071;SDS011;57434;42.794;23.302;2023-12-22T05:30:00;25.60;;;13.93;;
70071;SDS011;57434;42.794;23.302;2023-12-22T05:31:02;26.53;;;13.80;;
70071;SDS011;57434;42.794;23.302;2023-12-22T05:32:04;26.80;;;13.48;;
70071;SDS011;57434;42.794;23.302;2023-12-22T05:33:05;28.38;;;13.20;;
70071;SDS011;57434;42.794;23.302;2023-12-22T05:34:07;25.45;;;14.70;;
70071;SDS011;57434;42.794;23.302;2023-12-22T05:35:08;26.20;;;13.30;;
70071;SDS011;57434;42.794;23.302;2023-12-22T05:36:10;29.30;;;14.10;;
70071;SDS011;57434;42.794;23.302;2023-12-22T05:37:12;25.08;;;13.30;;
70071;SDS011;57434;42.794;23.302;2023-12-22T05:38:13;26.17;;;12.38;;
70071;SDS011;57434;42.794;23.302;2023-12-22T05:39:15;25.85;;;13.02;;
70071;SDS011;57434;42.794;23.302;2023-12-22T05:40:16;24.67;;;12.13;;
70071;SDS011;57434;42.794;23.302;2023-12-22T05:41:18;26.70;;;13.37;;
70071;SDS011;57434;42.794;23.302;2023-12-22T05:42:20;34.35;;;13.73;;
70071;SDS011;57434;42.794;23.302;2023-12-22T05:43:21;27.25;;;13.18;;
70071;SDS011;57434;42.794;23.302;2023-12-22T05:44:23;28.27;;;12.82;;
70071;SDS011;57434;42.794;23.302;2023-12-22T05:45:24;26.83;;;12.52;;
70071;SDS011;57434;42.794;23.302;2023-12-22T05:46:28;24.17;;;12.63;;
70071;SDS011;57434;42.794;23.302;2023-12-22T05:47:29;25.50;;;12.85;;
70071;SDS011;57434;42.794;23.302;2023-12-22T05:48:31;24.90;;;12.07;;
70071;SDS011;57434;42.794;23.302;2023-12-22T05:49:33;26.25;;;12.55;;
70071;SDS011;57434;42.794;23.302;2023-12-22T05:50:34;23.55;;;12.55;;
70071;SDS011;57434;42.794;23.302;2023-12-22T05:51:39;20.63;;;11.03;;
70071;SDS011;57434;42.794;23.302;2023-12-22T05:52:41;24.65;;;12.00;;
70071;SDS011;57434;42.794;23.302;2023-12-22T05:53:42;24.45;;;12.23;;
70071;SDS011;57434;42.794;23.302;2023-12-22T05:54:44;21.65;;;11.85;;
70071;SDS011;57434;42.794;23.302;2023-12-22T05:55:45;23.23;;;12.05;;
70071;SDS011;57434;42.794;23.302;2023-12-22T05:56:48;23.73;;;10.98;;
70071;SDS011;57434;42.794;23.302;2023-12-22T05:57:49;18.13;;;8.13;;
70071;SDS011;57434;42.794;23.302;2023-12-22T05:58:51;11.88;;;5.78;;
70071;SDS011;57434;42.794;23.302;2023-12-22T05:59:53;10.48;;;5.50;;